Time;durP1;ratioP1;P1;durP2;ratioP2;P2;SDS_P1;SDS_P2;PMS_P1;PMS_P2;Temp;Humidity;BMP_temperature;BMP_pressure;BME280_temperature;BME280_humidity;BME280_pressure;Samples;Min_cycle;Max_cycle;Signal;HPM_P1;HPM_P2
2021/09/09 00:02:05;;;;;;;5.53;4.28;;;;;;;;;;5094225;28;20028;-77
2021/09/09 00:04:32;;;;;;;4.43;3.83;;;;;;;;;;5094053;28;20028;-77
2021/09/09 00:06:58;;;;;;;5.85;4.38;;;;;;;;;;5092822;28;20478;-77
2021/09/09 00:09:24;;;;;;;4.13;3.83;;;;;;;;;;5094029;28;20028;-77
2021/09/09 00:11:50;;;;;;;4.70;4.07;;;;;;;;;;5094036;28;20391;-77
2021/09/09 00:14:16;;;;;;;5.45;3.95;;;;;;;;;;5093999;28;20034;-77
2021/09/09 00:16:42;;;;;;;4.18;3.72;;;;;;;;;;5093885;28;20111;-77
2021/09/09 00:19:08;;;;;;;5.95;4.38;;;;;;;;;;5094063;28;20499;-77
2021/09/09 00:21:34;;;;;;;4.75;4.30;;;;;;;;;;5093593;28;20055;-77
2021/09/09 00:24:01;;;;;;;4.90;4.13;;;;;;;;;;5094028;28;20420;-77
2021/09/09 00:26:27;;;;;;;4.03;3.63;;;;;;;;;;5093740;28;20043;-77
2021/09/09 00:28:55;;;;;;;4.40;4.00;;;;;;;;;;5093881;28;20028;-77
2021/09/09 00:31:21;;;;;;;4.75;4.28;;;;;;;;;;5093868;28;20024;-77
2021/09/09 00:33:47;;;;;;;5.38;4.10;;;;;;;;;;5093875;28;20497;-77
2021/09/09 00:36:13;;;;;;;5.32;3.92;;;;;;;;;;5093816;28;20572;-77
2021/09/09 00:38:39;;;;;;;4.45;3.95;;;;;;;;;;5093449;28;20055;-77
2021/09/09 00:41:06;;;;;;;4.55;4.15;;;;;;;;;;5093676;28;20539;-77
2021/09/09 00:43:32;;;;;;;5.20;3.90;;;;;;;;;;5093532;28;20024;-77
2021/09/09 00:45:58;;;;;;;4.05;3.47;;;;;;;;;;5093463;28;20032;-77
2021/09/09 00:48:24;;;;;;;5.38;4.25;;;;;;;;;;5093498;28;20099;-77
2021/09/09 00:50:51;;;;;;;4.70;4.18;;;;;;;;;;5093482;28;20027;-77
2021/09/09 00:53:18;;;;;;;5.18;4.68;;;;;;;;;;5093461;28;20031;-77
2021/09/09 00:55:44;;;;;;;5.00;4.47;;;;;;;;;;5093546;28;20036;-77
2021/09/09 00:58:10;;;;;;;4.13;3.72;;;;;;;;;;5093502;28;20020;-77
2021/09/09 01:00:37;;;;;;;3.83;3.42;;;;;;;;;;5093395;28;20356;-77
2021/09/09 01:03:03;;;;;;;5.00;4.50;;;;;;;;;;5094408;28;20093;-77
2021/09/09 01:05:29;;;;;;;8.60;4.97;;;;;;;;;;5097457;28;20042;-77
2021/09/09 01:07:56;;;;;;;5.35;4.63;;;;;;;;;;5097742;28;20103;-77
2021/09/09 01:10:22;;;;;;;6.53;4.38;;;;;;;;;;5097690;28;20387;-77
2021/09/09 01:12:48;;;;;;;5.15;4.65;;;;;;;;;;5097418;28;20444;-77
2021/09/09 01:15:14;;;;;;;6.35;4.97;;;;;;;;;;5096112;28;20390;-77
2021/09/09 01:17:41;;;;;;;5.03;4.63;;;;;;;;;;5097462;28;20053;-77
2021/09/09 01:20:07;;;;;;;5.35;4.65;;;;;;;;;;5097304;28;20052;-77
2021/09/09 01:22:33;;;;;;;5.90;5.40;;;;;;;;;;5097237;28;20108;-77
2021/09/09 01:25:00;;;;;;;5.32;4.88;;;;;;;;;;5097189;28;20063;-77
2021/09/09 01:27:26;;;;;;;4.95;4.45;;;;;;;;;;5097156;28;20103;-77
2021/09/09 01:29:52;;;;;;;5.55;5.05;;;;;;;;;;5097168;28;20467;-77
2021/09/09 01:32:18;;;;;;;4.88;4.43;;;;;;;;;;5097175;28;20094;-77
2021/09/09 01:34:44;;;;;;;5.50;4.93;;;;;;;;;;5097028;28;20031;-77
2021/09/09 01:37:11;;;;;;;5.75;5.13;;;;;;;;;;5097175;28;20024;-77
2021/09/09 01:39:38;;;;;;;4.85;4.43;;;;;;;;;;5096784;28;20052;-77
2021/09/09 01:42:04;;;;;;;5.28;4.78;;;;;;;;;;5096893;28;20061;-77
2021/09/09 01:44:30;;;;;;;5.45;5.00;;;;;;;;;;5096628;28;20629;-77
2021/09/09 01:46:57;;;;;;;5.07;4.43;;;;;;;;;;5096778;28;20047;-77
2021/09/09 01:49:23;;;;;;;5.35;4.82;;;;;;;;;;5096805;28;20364;-77
2021/09/09 01:51:49;;;;;;;6.28;5.15;;;;;;;;;;5096740;28;20110;-77
2021/09/09 01:54:16;;;;;;;5.70;5.03;;;;;;;;;;5096714;28;20105;-77
2021/09/09 01:56:42;;;;;;;6.45;5.85;;;;;;;;;;5096592;28;20028;-77
2021/09/09 01:59:08;;;;;;;5.68;5.07;;;;;;;;;;5096639;28;20036;-77
2021/09/09 02:01:34;;;;;;;7.35;5.25;;;;;;;;;;5096496;28;20028;-77
2021/09/09 02:04:01;;;;;;;6.18;5.50;;;;;;;;;;5096570;28;20028;-77
2021/09/09 02:06:27;;;;;;;6.05;5.28;;;;;;;;;;5096237;28;20032;-77
2021/09/09 02:08:53;;;;;;;5.68;5.07;;;;;;;;;;5096544;28;20032;-77
2021/09/09 02:11:21;;;;;;;6.63;5.70;;;;;;;;;;5096326;28;20111;-77
2021/09/09 02:13:48;;;;;;;6.70;6.10;;;;;;;;;;5096411;28;20039;-77
2021/09/09 02:16:14;;;;;;;6.30;5.70;;;;;;;;;;5095460;28;20382;-77
2021/09/09 02:18:40;;;;;;;6.47;5.90;;;;;;;;;;5096280;28;20026;-77
2021/09/09 02:21:06;;;;;;;7.22;5.50;;;;;;;;;;5096133;28;20028;-77
2021/09/09 02:23:32;;;;;;;6.00;5.32;;;;;;;;;;5095990;28;20105;-77
2021/09/09 02:25:58;;;;;;;6.90;5.63;;;;;;;;;;5095946;28;20044;-77
2021/09/09 02:28:24;;;;;;;5.35;4.82;;;;;;;;;;5095990;28;20056;-77
2021/09/09 02:30:50;;;;;;;6.22;5.63;;;;;;;;;;5095949;28;20020;-77
2021/09/09 02:33:19;;;;;;;7.43;6.22;;;;;;;;;;5096160;28;20506;-77
2021/09/09 02:35:47;;;;;;;5.95;5.38;;;;;;;;;;5094746;28;20425;-77
2021/09/09 02:38:16;;;;;;;4.85;4.45;;;;;;;;;;5095692;28;20040;-77
2021/09/09 02:40:42;;;;;;;5.90;5.40;;;;;;;;;;5095814;28;20111;-77
2021/09/09 02:43:08;;;;;;;13.32;12.00;;;;;;;;;;5095800;28;20082;-77
2021/09/09 02:45:35;;;;;;;10.88;9.85;;;;;;;;;;5095677;28;20028;-77
2021/09/09 02:48:04;;;;;;;6.63;6.03;;;;;;;;;;5094314;28;20479;-77
2021/09/09 02:50:31;;;;;;;6.82;5.70;;;;;;;;;;5095408;28;20024;-77
2021/09/09 02:52:57;;;;;;;6.47;5.88;;;;;;;;;;5095769;28;20024;-77
2021/09/09 02:55:23;;;;;;;14.60;13.18;;;;;;;;;;5095810;28;20038;-77
2021/09/09 02:57:49;;;;;;;7.35;6.75;;;;;;;;;;5095567;28;20020;-77
2021/09/09 03:00:15;;;;;;;6.53;5.85;;;;;;;;;;5095408;28;20028;-77
2021/09/09 03:02:42;;;;;;;6.80;5.72;;;;;;;;;;5095400;28;20093;-77
2021/09/09 03:05:09;;;;;;;6.72;6.13;;;;;;;;;;5095024;28;20467;-77
2021/09/09 03:07:35;;;;;;;7.82;5.95;;;;;;;;;;5095068;28;20028;-77
2021/09/09 03:10:01;;;;;;;6.28;5.68;;;;;;;;;;5095430;28;20528;-77
2021/09/09 03:12:27;;;;;;;6.22;5.68;;;;;;;;;;5095022;28;20459;-77
2021/09/09 03:14:53;;;;;;;7.80;7.10;;;;;;;;;;5095109;28;20094;-77
2021/09/09 03:17:20;;;;;;;7.03;6.32;;;;;;;;;;5093745;28;20062;-77
2021/09/09 03:19:46;;;;;;;6.82;6.20;;;;;;;;;;5095231;28;20427;-77
2021/09/09 03:22:12;;;;;;;7.78;6.85;;;;;;;;;;5094950;28;20089;-77
2021/09/09 03:24:39;;;;;;;6.63;5.80;;;;;;;;;;5094885;28;20073;-77
2021/09/09 03:27:05;;;;;;;7.97;7.20;;;;;;;;;;5095141;28;20028;-77
2021/09/09 03:29:31;;;;;;;6.97;6.28;;;;;;;;;;5095039;28;20031;-77
2021/09/09 03:31:57;;;;;;;7.18;6.47;;;;;;;;;;5094775;28;20024;-77
2021/09/09 03:34:23;;;;;;;6.90;6.32;;;;;;;;;;5094830;28;20028;-77
2021/09/09 03:36:49;;;;;;;8.02;7.32;;;;;;;;;;5094721;28;20024;-77
2021/09/09 03:39:15;;;;;;;7.72;6.93;;;;;;;;;;5094539;28;20084;-77
2021/09/09 03:41:42;;;;;;;7.18;6.63;;;;;;;;;;5094770;28;20386;-77
2021/09/09 03:44:08;;;;;;;11.43;7.80;;;;;;;;;;5094553;28;20028;-77
2021/09/09 03:46:34;;;;;;;7.80;7.10;;;;;;;;;;5093106;28;20040;-77
2021/09/09 03:49:00;;;;;;;7.85;7.10;;;;;;;;;;5094516;28;20552;-77
2021/09/09 03:51:26;;;;;;;8.95;8.07;;;;;;;;;;5094248;28;20024;-77
2021/09/09 03:53:52;;;;;;;9.80;8.38;;;;;;;;;;5093089;28;20415;-77
2021/09/09 03:56:19;;;;;;;8.35;7.65;;;;;;;;;;5094282;28;20443;-77
2021/09/09 03:58:45;;;;;;;8.13;7.53;;;;;;;;;;5094343;28;20028;-77
2021/09/09 04:01:11;;;;;;;7.63;6.93;;;;;;;;;;5094297;28;20039;-77
2021/09/09 04:03:37;;;;;;;8.52;7.72;;;;;;;;;;5094260;28;20394;-77
2021/09/09 04:06:03;;;;;;;9.65;8.75;;;;;;;;;;5093972;28;20035;-77
2021/09/09 04:08:29;;;;;;;8.30;7.50;;;;;;;;;;5094009;28;20036;-77
2021/09/09 04:10:55;;;;;;;8.73;7.97;;;;;;;;;;5094065;28;20055;-77
2021/09/09 04:13:21;;;;;;;7.85;7.10;;;;;;;;;;5093972;28;20050;-77
2021/09/09 04:15:47;;;;;;;8.15;7.35;;;;;;;;;;5094180;28;20024;-77
2021/09/09 04:18:13;;;;;;;7.93;7.13;;;;;;;;;;5093962;28;20027;-77
2021/09/09 04:20:40;;;;;;;8.35;7.65;;;;;;;;;;5093881;28;20027;-77
2021/09/09 04:23:06;;;;;;;7.90;7.18;;;;;;;;;;5093703;28;20081;-77
2021/09/09 04:25:32;;;;;;;9.02;8.25;;;;;;;;;;5093814;28;20040;-77
2021/09/09 04:27:58;;;;;;;9.82;8.82;;;;;;;;;;5093839;28;20027;-78
2021/09/09 04:30:24;;;;;;;8.85;7.90;;;;;;;;;;5093769;28;20028;-77
2021/09/09 04:32:50;;;;;;;8.57;7.78;;;;;;;;;;5093708;28;20075;-77
2021/09/09 04:35:16;;;;;;;10.20;8.63;;;;;;;;;;5093593;28;20065;-78
2021/09/09 04:37:42;;;;;;;8.82;8.02;;;;;;;;;;5093130;28;20532;-78
2021/09/09 04:40:09;;;;;;;8.82;8.02;;;;;;;;;;5093733;28;20052;-78
2021/09/09 04:42:35;;;;;;;8.82;7.97;;;;;;;;;;5093630;28;20035;-78
2021/09/09 04:45:01;;;;;;;9.95;8.98;;;;;;;;;;5093493;28;20103;-78
2021/09/09 04:47:27;;;;;;;9.43;8.52;;;;;;;;;;5093467;28;20053;-78
2021/09/09 04:49:53;;;;;;;10.13;9.23;;;;;;;;;;5093463;28;20099;-78
2021/09/09 04:52:19;;;;;;;9.73;8.75;;;;;;;;;;5093421;28;20077;-78
2021/09/09 04:54:46;;;;;;;42.78;37.78;;;;;;;;;;5093337;28;20020;-78
2021/09/09 04:57:13;;;;;;;16.48;14.80;;;;;;;;;;5093137;28;20028;-78
2021/09/09 04:59:39;;;;;;;13.52;12.25;;;;;;;;;;5093354;28;20052;-78
2021/09/09 05:02:05;;;;;;;28.60;25.75;;;;;;;;;;5093658;28;20494;-78
2021/09/09 05:04:31;;;;;;;18.52;16.23;;;;;;;;;;5091752;28;20035;-78
2021/09/09 05:06:57;;;;;;;10.48;9.48;;;;;;;;;;5084136;28;20146;-79
2021/09/09 05:09:23;;;;;;;9.68;8.77;;;;;;;;;;5073249;28;20491;-78
2021/09/09 05:11:49;;;;;;;10.35;8.85;;;;;;;;;;5073068;28;20082;-78
2021/09/09 05:14:16;;;;;;;9.55;8.65;;;;;;;;;;5073077;28;20521;-78
2021/09/09 05:16:42;;;;;;;14.23;12.93;;;;;;;;;;5073093;28;20029;-78
2021/09/09 05:19:08;;;;;;;10.65;9.57;;;;;;;;;;5072821;28;20028;-79
2021/09/09 05:21:34;;;;;;;11.77;10.75;;;;;;;;;;5072905;28;20371;-79
2021/09/09 05:24:00;;;;;;;9.75;8.85;;;;;;;;;;5072288;28;20028;-77
2021/09/09 05:26:27;;;;;;;9.70;8.88;;;;;;;;;;5072020;28;20032;-78
2021/09/09 05:28:53;;;;;;;9.40;8.60;;;;;;;;;;5073041;28;20024;-79
2021/09/09 05:31:19;;;;;;;9.25;8.43;;;;;;;;;;5091289;28;20389;-79
2021/09/09 05:33:45;;;;;;;9.52;8.60;;;;;;;;;;5092083;28;20363;-79
2021/09/09 05:36:11;;;;;;;10.43;9.52;;;;;;;;;;5084760;28;20021;-79
2021/09/09 05:38:37;;;;;;;10.65;9.55;;;;;;;;;;5088334;28;20086;-78
2021/09/09 05:41:03;;;;;;;9.90;8.85;;;;;;;;;;5090285;28;20036;-78
2021/09/09 05:43:29;;;;;;;10.77;9.80;;;;;;;;;;5080125;28;20032;-79
2021/09/09 05:45:56;;;;;;;10.32;8.85;;;;;;;;;;5090106;28;20437;-79
2021/09/09 05:48:22;;;;;;;10.18;9.13;;;;;;;;;;5091099;28;20024;-79
2021/09/09 05:50:48;;;;;;;9.38;8.48;;;;;;;;;;5093961;28;20072;-80
2021/09/09 05:53:14;;;;;;;10.98;9.98;;;;;;;;;;5095232;28;20028;-80
2021/09/09 05:55:40;;;;;;;9.85;8.85;;;;;;;;;;5095559;28;20028;-79
2021/09/09 05:58:06;;;;;;;10.45;9.57;;;;;;;;;;5090579;28;20028;-79
2021/09/09 06:00:33;;;;;;;11.65;10.50;;;;;;;;;;5094238;28;20053;-72
2021/09/09 06:03:01;;;;;;;14.20;12.93;;;;;;;;;;5093061;28;20103;-78
2021/09/09 06:05:27;;;;;;;11.07;9.95;;;;;;;;;;5094660;28;20043;-79
2021/09/09 06:07:54;;;;;;;16.17;14.57;;;;;;;;;;5094411;28;20043;-79
2021/09/09 06:10:20;;;;;;;10.65;9.73;;;;;;;;;;5094228;28;20562;-78
2021/09/09 06:12:46;;;;;;;10.82;9.82;;;;;;;;;;5094107;28;20065;-78
2021/09/09 06:15:12;;;;;;;16.55;15.05;;;;;;;;;;5094444;28;20477;-78
2021/09/09 06:17:38;;;;;;;13.82;12.52;;;;;;;;;;5094132;28;20024;-77
2021/09/09 06:20:05;;;;;;;11.65;10.45;;;;;;;;;;5094056;28;20487;-78
2021/09/09 06:22:31;;;;;;;9.07;8.18;;;;;;;;;;5094094;28;20053;-80
2021/09/09 06:24:57;;;;;;;7.95;7.25;;;;;;;;;;5094123;28;20368;-79
2021/09/09 06:27:24;;;;;;;12.73;10.68;;;;;;;;;;5093754;28;20051;-83
2021/09/09 06:29:50;;;;;;;9.77;8.77;;;;;;;;;;5094209;28;20032;-79
2021/09/09 06:32:16;;;;;;;8.50;7.68;;;;;;;;;;5093267;28;20077;-79
2021/09/09 06:34:42;;;;;;;8.70;7.88;;;;;;;;;;5094141;28;20024;-79
2021/09/09 06:37:08;;;;;;;8.77;7.88;;;;;;;;;;5093892;28;20445;-79
2021/09/09 06:39:35;;;;;;;9.65;8.02;;;;;;;;;;5093532;28;20056;-78
2021/09/09 06:42:01;;;;;;;9.65;7.90;;;;;;;;;;5093897;28;20052;-79
2021/09/09 06:44:27;;;;;;;8.23;7.47;;;;;;;;;;5091341;28;20032;-78
2021/09/09 06:46:53;;;;;;;15.07;13.38;;;;;;;;;;5093351;28;20027;-77
2021/09/09 06:49:19;;;;;;;12.23;11.00;;;;;;;;;;5093274;28;20059;-77
2021/09/09 06:51:45;;;;;;;8.80;7.93;;;;;;;;;;5092426;28;20118;-78
2021/09/09 06:54:12;;;;;;;8.80;7.90;;;;;;;;;;5092948;28;20102;-76
2021/09/09 06:56:38;;;;;;;7.80;7.07;;;;;;;;;;5091526;28;20024;-77
2021/09/09 06:59:04;;;;;;;13.48;12.18;;;;;;;;;;5092701;28;20066;-77
2021/09/09 07:01:30;;;;;;;10.30;7.57;;;;;;;;;;5091239;28;20392;-78
2021/09/09 07:03:56;;;;;;;9.00;7.72;;;;;;;;;;5093577;28;20028;-78
2021/09/09 07:06:22;;;;;;;9.05;7.00;;;;;;;;;;5092597;28;20047;-78
2021/09/09 07:08:48;;;;;;;7.53;6.82;;;;;;;;;;5093335;28;20382;-76
2021/09/09 07:11:14;;;;;;;8.88;6.97;;;;;;;;;;5091653;28;20378;-75
2021/09/09 07:13:40;;;;;;;7.85;7.03;;;;;;;;;;5092847;28;20020;-76
2021/09/09 07:16:06;;;;;;;8.05;7.25;;;;;;;;;;5092695;28;20031;-77
2021/09/09 07:18:34;;;;;;;7.55;6.47;;;;;;;;;;5092799;28;20061;-76
2021/09/09 07:21:01;;;;;;;6.45;5.85;;;;;;;;;;5093269;28;20028;-77
2021/09/09 07:23:27;;;;;;;7.68;6.13;;;;;;;;;;5093095;28;20059;-77
2021/09/09 07:25:53;;;;;;;9.80;6.72;;;;;;;;;;5092638;28;20077;-77
2021/09/09 07:28:21;;;;;;;8.05;7.32;;;;;;;;;;5092613;28;20063;-78
2021/09/09 07:30:47;;;;;;;7.22;6.55;;;;;;;;;;5092331;28;20391;-78
2021/09/09 07:33:14;;;;;;;8.95;8.05;;;;;;;;;;5092318;28;20028;-77
2021/09/09 07:35:42;;;;;;;7.75;6.88;;;;;;;;;;5092098;28;20035;-79
2021/09/09 07:38:09;;;;;;;8.88;6.82;;;;;;;;;;5090524;28;20028;-77
2021/09/09 07:40:36;;;;;;;7.10;6.40;;;;;;;;;;5092205;28;20127;-77
2021/09/09 07:43:02;;;;;;;18.77;7.82;;;;;;;;;;5092827;28;20510;-78
2021/09/09 07:45:29;;;;;;;8.23;6.50;;;;;;;;;;5092602;28;20036;-77
2021/09/09 07:47:55;;;;;;;7.55;6.63;;;;;;;;;;5091930;28;20066;-81
2021/09/09 07:50:21;;;;;;;6.55;5.90;;;;;;;;;;5091332;28;20024;-77
2021/09/09 07:52:47;;;;;;;7.68;6.13;;;;;;;;;;5092588;28;20031;-78
2021/09/09 07:55:14;;;;;;;6.55;5.95;;;;;;;;;;5092407;28;20523;-78
2021/09/09 07:57:43;;;;;;;7.32;5.63;;;;;;;;;;5092096;28;20035;-79
2021/09/09 08:00:10;;;;;;;6.05;5.43;;;;;;;;;;5092109;28;20031;-78
2021/09/09 08:02:36;;;;;;;6.70;5.85;;;;;;;;;;5091856;28;20035;-80
2021/09/09 08:05:02;;;;;;;6.82;4.90;;;;;;;;;;5092013;28;20104;-79
2021/09/09 08:07:28;;;;;;;6.60;5.88;;;;;;;;;;5092283;28;20028;-78
2021/09/09 08:09:54;;;;;;;6.10;5.53;;;;;;;;;;5092173;28;20028;-78
2021/09/09 08:12:23;;;;;;;6.05;5.55;;;;;;;;;;5091958;28;20032;-78
2021/09/09 08:14:49;;;;;;;6.85;6.22;;;;;;;;;;5089999;28;20040;-78
2021/09/09 08:17:15;;;;;;;6.90;6.20;;;;;;;;;;5081457;28;20028;-79
2021/09/09 08:19:41;;;;;;;4.60;4.10;;;;;;;;;;5082785;28;20028;-78
2021/09/09 08:22:07;;;;;;;4.50;4.00;;;;;;;;;;5091918;28;20520;-78
2021/09/09 08:24:34;;;;;;;12.52;4.70;;;;;;;;;;5090846;28;20548;-80
2021/09/09 08:27:00;;;;;;;6.68;6.07;;;;;;;;;;5092016;28;20750;-78
2021/09/09 08:29:26;;;;;;;8.52;5.63;;;;;;;;;;5091992;28;20028;-78
2021/09/09 08:31:52;;;;;;;6.75;5.68;;;;;;;;;;5090208;28;20036;-77
2021/09/09 08:34:18;;;;;;;7.07;4.97;;;;;;;;;;5091214;28;20035;-77
2021/09/09 08:36:44;;;;;;;6.13;5.13;;;;;;;;;;5090195;28;20479;-78
2021/09/09 08:39:12;;;;;;;5.55;4.90;;;;;;;;;;5091583;28;20465;-76
2021/09/09 08:41:39;;;;;;;4.93;4.60;;;;;;;;;;5091631;28;20068;-77
2021/09/09 08:44:05;;;;;;;5.13;4.63;;;;;;;;;;5090917;28;20031;-77
2021/09/09 08:46:31;;;;;;;6.75;4.82;;;;;;;;;;5090723;28;20039;-78
2021/09/09 08:48:57;;;;;;;5.60;4.82;;;;;;;;;;5088850;28;20360;-78
2021/09/09 08:51:23;;;;;;;6.53;4.82;;;;;;;;;;5079056;28;20111;-76
2021/09/09 08:53:50;;;;;;;5.63;5.03;;;;;;;;;;5083315;28;20032;-68
2021/09/09 08:56:16;;;;;;;6.95;5.35;;;;;;;;;;5089397;28;20497;-76
2021/09/09 08:58:42;;;;;;;7.32;5.65;;;;;;;;;;5090435;28;20028;-76
2021/09/09 09:01:18;;;;;;;7.93;5.10;;;;;;;;;;5090969;28;20068;-77
2021/09/09 09:03:44;;;;;;;6.10;4.63;;;;;;;;;;5091398;28;20394;-76
2021/09/09 09:06:26;;;;;;;4.72;4.20;;;;;;;;;;5089099;28;20420;-79
2021/09/09 09:08:56;;;;;;;5.63;4.47;;;;;;;;;;5091168;28;20368;-77
2021/09/09 09:11:23;;;;;;;5.18;4.63;;;;;;;;;;5091569;28;20028;-75
2021/09/09 09:13:49;;;;;;;6.43;4.43;;;;;;;;;;5091176;28;20035;-75
2021/09/09 09:16:15;;;;;;;4.47;3.88;;;;;;;;;;5091165;28;20035;-76
2021/09/09 09:18:42;;;;;;;4.57;4.18;;;;;;;;;;5091114;28;20073;-76
2021/09/09 09:21:08;;;;;;;5.70;4.95;;;;;;;;;;5091080;28;20036;-77
2021/09/09 09:23:34;;;;;;;8.00;4.90;;;;;;;;;;5091739;28;20402;-76
2021/09/09 09:26:02;;;;;;;10.02;8.13;;;;;;;;;;5094734;28;20483;-76
2021/09/09 09:28:47;;;;;;;5.07;4.57;;;;;;;;;;5095372;28;20032;-75
2021/09/09 09:31:15;;;;;;;14.57;5.20;;;;;;;;;;5095651;28;20085;-77
2021/09/09 09:33:45;;;;;;;6.47;5.88;;;;;;;;;;5095188;28;20040;-76
2021/09/09 09:36:21;;;;;;;5.10;4.70;;;;;;;;;;5094733;28;20463;-76
2021/09/09 09:38:48;;;;;;;8.23;7.43;;;;;;;;;;5095263;28;20486;-76
2021/09/09 09:41:17;;;;;;;8.20;6.40;;;;;;;;;;5095674;28;20028;-76
2021/09/09 09:43:57;;;;;;;12.57;11.38;;;;;;;;;;5095459;28;20047;-76
2021/09/09 09:46:28;;;;;;;9.52;8.23;;;;;;;;;;5088837;28;20115;-75
2021/09/09 09:48:54;;;;;;;4.72;4.32;;;;;;;;;;5094055;28;20043;-75
2021/09/09 09:51:40;;;;;;;4.72;4.32;;;;;;;;;;5094987;28;20039;-75
2021/09/09 09:54:08;;;;;;;4.68;4.22;;;;;;;;;;5094946;28;20039;-76
2021/09/09 09:56:35;;;;;;;5.47;4.97;;;;;;;;;;5094761;28;20599;-77
2021/09/09 09:59:01;;;;;;;9.10;4.97;;;;;;;;;;5094918;28;20078;-76
2021/09/09 10:01:28;;;;;;;11.88;10.52;;;;;;;;;;5095552;28;20032;-74
2021/09/09 10:03:54;;;;;;;9.00;7.68;;;;;;;;;;5094804;28;20027;-75
2021/09/09 10:06:20;;;;;;;6.20;5.60;;;;;;;;;;5094483;28;20526;-75
2021/09/09 10:08:47;;;;;;;7.82;7.13;;;;;;;;;;5094703;28;20479;-75
2021/09/09 10:11:14;;;;;;;4.53;4.13;;;;;;;;;;5093915;28;20119;-74
2021/09/09 10:13:40;;;;;;;4.68;4.20;;;;;;;;;;5095072;28;20024;-74
2021/09/09 10:16:06;;;;;;;61.75;48.30;;;;;;;;;;5094592;28;20054;-76
2021/09/09 10:18:33;;;;;;;12.50;11.27;;;;;;;;;;5094723;28;20066;-75
2021/09/09 10:21:02;;;;;;;19.85;17.90;;;;;;;;;;5093965;28;20085;-75
2021/09/09 10:23:28;;;;;;;10.38;9.05;;;;;;;;;;5094983;28;20044;-74
2021/09/09 10:25:58;;;;;;;12.45;11.15;;;;;;;;;;5094617;28;20040;-76
2021/09/09 10:28:37;;;;;;;7.28;6.50;;;;;;;;;;5094400;28;20086;-76
2021/09/09 10:31:05;;;;;;;11.48;5.22;;;;;;;;;;5094078;28;20032;-76
2021/09/09 10:33:31;;;;;;;4.60;4.20;;;;;;;;;;5094420;28;20020;-76
2021/09/09 10:35:58;;;;;;;5.03;4.55;;;;;;;;;;5092043;28;20028;-76
2021/09/09 10:38:26;;;;;;;6.30;4.57;;;;;;;;;;5094551;28;20044;-76
2021/09/09 10:40:52;;;;;;;4.53;3.88;;;;;;;;;;5082438;28;20063;-76
2021/09/09 10:43:37;;;;;;;7.03;4.72;;;;;;;;;;5073857;28;20028;-76
2021/09/09 10:46:04;;;;;;;5.78;4.53;;;;;;;;;;5073595;28;20395;-75
2021/09/09 10:48:31;;;;;;;4.80;4.00;;;;;;;;;;5073998;28;20052;-76
2021/09/09 10:51:02;;;;;;;6.32;4.53;;;;;;;;;;5081571;28;20386;-76
2021/09/09 10:53:44;;;;;;;5.57;4.40;;;;;;;;;;5094236;28;20436;-76
2021/09/09 10:56:16;;;;;;;15.23;13.10;;;;;;;;;;5094244;28;20052;-75
2021/09/09 10:58:43;;;;;;;12.05;10.77;;;;;;;;;;5093819;28;20028;-76
2021/09/09 11:01:10;;;;;;;34.33;30.95;;;;;;;;;;5093622;28;20081;-76
2021/09/09 11:03:37;;;;;;;7.38;5.53;;;;;;;;;;5093947;28;20062;-76
2021/09/09 11:06:11;;;;;;;7.38;6.70;;;;;;;;;;5093707;28;20059;-76
2021/09/09 11:08:37;;;;;;;10.00;7.57;;;;;;;;;;5093887;28;20471;-76
2021/09/09 11:11:05;;;;;;;6.70;4.60;;;;;;;;;;5088131;28;20040;-76
2021/09/09 11:13:32;;;;;;;10.02;8.98;;;;;;;;;;5092430;28;20036;-76
2021/09/09 11:15:58;;;;;;;26.23;13.27;;;;;;;;;;5085614;28;20384;-75
2021/09/09 11:18:28;;;;;;;14.80;13.27;;;;;;;;;;5088859;28;20430;-76
2021/09/09 11:21:13;;;;;;;7.70;5.15;;;;;;;;;;5088323;28;20470;-75
2021/09/09 11:23:39;;;;;;;5.03;3.40;;;;;;;;;;5085492;28;20077;-79
2021/09/09 11:26:24;;;;;;;5.28;3.78;;;;;;;;;;5093283;28;20506;-77
2021/09/09 11:28:51;;;;;;;2.97;2.78;;;;;;;;;;5093574;28;20119;-77
2021/09/09 11:31:35;;;;;;;5.90;3.28;;;;;;;;;;5093359;28;20028;-79
2021/09/09 11:34:05;;;;;;;3.67;3.15;;;;;;;;;;5092804;28;20135;-76
2021/09/09 11:36:39;;;;;;;5.97;3.35;;;;;;;;;;5092375;28;20028;-77
2021/09/09 11:39:10;;;;;;;4.10;3.38;;;;;;;;;;5087440;28;20051;-77
2021/09/09 11:41:37;;;;;;;5.95;3.53;;;;;;;;;;5084189;28;20032;-77
2021/09/09 11:44:04;;;;;;;4.80;3.30;;;;;;;;;;5073067;28;20537;-78
2021/09/09 11:46:30;;;;;;;7.65;3.80;;;;;;;;;;5072678;28;20090;-76
2021/09/09 11:48:57;;;;;;;4.93;3.20;;;;;;;;;;5072550;28;20052;-78
2021/09/09 11:51:36;;;;;;;3.90;3.13;;;;;;;;;;5072648;28;20028;-79
2021/09/09 11:54:03;;;;;;;3.00;2.70;;;;;;;;;;5079923;28;20040;-79
2021/09/09 11:56:30;;;;;;;10.05;3.47;;;;;;;;;;5091862;28;20103;-79
2021/09/09 11:58:59;;;;;;;3.20;2.88;;;;;;;;;;5091794;28;20423;-79
2021/09/09 12:01:26;;;;;;;3.38;3.08;;;;;;;;;;5091150;28;20382;-78
2021/09/09 12:03:52;;;;;;;4.32;3.10;;;;;;;;;;5091596;28;20067;-79
2021/09/09 12:06:22;;;;;;;3.63;3.00;;;;;;;;;;5092132;28;20067;-79
2021/09/09 12:08:48;;;;;;;3.75;3.03;;;;;;;;;;5090004;28;20023;-78
2021/09/09 12:11:14;;;;;;;4.80;2.90;;;;;;;;;;5086784;28;20020;-80
2021/09/09 12:13:43;;;;;;;6.97;3.25;;;;;;;;;;5089073;28;20032;-79
2021/09/09 12:16:16;;;;;;;3.38;3.05;;;;;;;;;;5081253;28;20426;-80
2021/09/09 12:18:47;;;;;;;4.63;3.10;;;;;;;;;;5091854;28;20032;-78
2021/09/09 12:21:24;;;;;;;4.47;3.42;;;;;;;;;;5089513;28;20099;-79
2021/09/09 12:24:04;;;;;;;4.82;4.03;;;;;;;;;;5091657;28;20039;-78
2021/09/09 12:26:31;;;;;;;6.57;5.80;;;;;;;;;;5092056;28;20443;-77
2021/09/09 12:28:57;;;;;;;16.30;14.57;;;;;;;;;;5091344;28;20023;-79
2021/09/09 12:31:42;;;;;;;7.95;4.90;;;;;;;;;;5092503;28;20028;-80
2021/09/09 12:34:11;;;;;;;3.83;3.05;;;;;;;;;;5091889;28;20483;-79
2021/09/09 12:36:41;;;;;;;4.38;3.83;;;;;;;;;;5091827;28;20031;-78
2021/09/09 12:39:08;;;;;;;5.95;4.35;;;;;;;;;;5092316;28;20048;-78
2021/09/09 12:41:34;;;;;;;4.22;3.38;;;;;;;;;;5092114;28;20366;-79
2021/09/09 12:44:01;;;;;;;3.40;2.88;;;;;;;;;;5092005;28;20024;-78
2021/09/09 12:46:35;;;;;;;5.43;3.17;;;;;;;;;;5079918;28;20066;-79
2021/09/09 12:49:03;;;;;;;83.85;75.07;;;;;;;;;;5085250;28;20032;-79
2021/09/09 12:51:29;;;;;;;12.30;11.13;;;;;;;;;;5091440;28;20031;-78
2021/09/09 12:53:56;;;;;;;13.27;11.88;;;;;;;;;;5085655;28;20028;-79
2021/09/09 12:56:22;;;;;;;2.90;2.60;;;;;;;;;;5083803;28;20047;-77
2021/09/09 12:58:48;;;;;;;5.18;4.30;;;;;;;;;;5087356;28;20032;-77
2021/09/09 13:01:14;;;;;;;11.27;8.65;;;;;;;;;;5087740;28;20024;-77
2021/09/09 13:03:41;;;;;;;4.80;4.40;;;;;;;;;;5082614;28;20086;-78
2021/09/09 13:06:09;;;;;;;5.82;3.60;;;;;;;;;;5087509;28;20127;-77
2021/09/09 13:08:35;;;;;;;13.30;11.77;;;;;;;;;;5084153;28;20070;-77
2021/09/09 13:11:01;;;;;;;6.93;4.95;;;;;;;;;;5083760;28;20020;-77
2021/09/09 13:13:30;;;;;;;4.72;3.22;;;;;;;;;;5092228;28;20376;-77
2021/09/09 13:15:56;;;;;;;6.00;2.83;;;;;;;;;;5096976;28;20040;-77
2021/09/09 13:18:23;;;;;;;5.07;3.50;;;;;;;;;;5077070;28;20042;-78
2021/09/09 13:20:50;;;;;;;3.97;3.60;;;;;;;;;;5088518;28;20040;-76
2021/09/09 13:23:16;;;;;;;8.30;5.68;;;;;;;;;;5091237;28;20039;-76
2021/09/09 13:25:42;;;;;;;7.00;5.50;;;;;;;;;;5090237;28;20028;-75
2021/09/09 13:28:08;;;;;;;8.85;5.95;;;;;;;;;;5091193;28;20503;-74
2021/09/09 13:30:38;;;;;;;7.00;5.38;;;;;;;;;;5090342;28;20584;-76
2021/09/09 13:33:05;;;;;;;6.80;5.50;;;;;;;;;;5090122;28;20119;-70
2021/09/09 13:35:32;;;;;;;5.35;4.95;;;;;;;;;;5091274;28;20085;-76
2021/09/09 13:38:02;;;;;;;7.18;6.45;;;;;;;;;;5090322;28;20040;-75
2021/09/09 13:40:28;;;;;;;7.97;5.40;;;;;;;;;;5091019;28;20030;-75
2021/09/09 13:42:55;;;;;;;5.63;5.00;;;;;;;;;;5090615;28;20024;-75
2021/09/09 13:45:21;;;;;;;15.05;12.98;;;;;;;;;;5090967;28;20115;-74
2021/09/09 13:47:47;;;;;;;6.93;5.32;;;;;;;;;;5090727;28;20036;-76
2021/09/09 13:50:14;;;;;;;6.97;6.28;;;;;;;;;;5090175;28;20516;-75
2021/09/09 13:52:40;;;;;;;7.97;5.53;;;;;;;;;;5091630;28;20463;-78
2021/09/09 13:55:08;;;;;;;11.63;8.90;;;;;;;;;;5090924;28;20108;-76
2021/09/09 13:57:34;;;;;;;6.00;5.40;;;;;;;;;;5091422;28;20382;-76
2021/09/09 14:00:01;;;;;;;10.45;6.35;;;;;;;;;;5090889;28;20552;-75
2021/09/09 14:02:27;;;;;;;8.27;6.78;;;;;;;;;;5091034;28;20062;-76
2021/09/09 14:04:53;;;;;;;14.23;12.05;;;;;;;;;;5090739;28;20039;-76
2021/09/09 14:07:20;;;;;;;6.40;5.85;;;;;;;;;;5091503;28;20036;-76
2021/09/09 14:09:46;;;;;;;5.35;4.85;;;;;;;;;;5087552;28;20036;-74
2021/09/09 14:12:13;;;;;;;5.15;4.65;;;;;;;;;;5092347;28;20619;-75
2021/09/09 14:14:39;;;;;;;7.85;6.88;;;;;;;;;;5094473;28;20031;-76
2021/09/09 14:17:05;;;;;;;8.48;7.47;;;;;;;;;;5093936;28;20526;-76
2021/09/09 14:19:31;;;;;;;4.93;4.45;;;;;;;;;;5094117;28;20028;-76
2021/09/09 14:21:57;;;;;;;5.68;5.03;;;;;;;;;;5094007;28;20421;-76
2021/09/09 14:24:23;;;;;;;7.55;5.93;;;;;;;;;;5093326;28;20089;-76
2021/09/09 14:26:50;;;;;;;7.78;5.88;;;;;;;;;;5093705;28;20039;-75
2021/09/09 14:29:17;;;;;;;6.82;6.05;;;;;;;;;;5092470;28;20039;-74
2021/09/09 14:31:44;;;;;;;9.15;6.32;;;;;;;;;;5093550;28;20474;-75
2021/09/09 14:34:10;;;;;;;11.02;7.43;;;;;;;;;;5092479;28;20016;-76
2021/09/09 14:36:37;;;;;;;7.30;6.60;;;;;;;;;;5092706;28;20102;-75
2021/09/09 14:39:03;;;;;;;8.98;7.20;;;;;;;;;;5093262;28;20104;-75